sensor_id;sensor_type;location;lat;lon;timestamp;pressure;altitude;pressure_sealevel;temperature;humidity
51123;BME280;37162;41.724;13.346;2023-04-12T00:00:28;96470.69;;;16.97;59.31
51123;BME280;37162;41.724;13.346;2023-04-12T00:02:53;96481.03;;;17.05;59.37
51123;BME280;37162;41.724;13.346;2023-04-12T00:05:20;96479.44;;;17.04;59.51
51123;BME280;37162;41.724;13.346;2023-04-12T00:07:47;96473.81;;;17.05;59.46
51123;BME280;37162;41.724;13.346;2023-04-12T00:10:13;96477.56;;;17.04;59.67
51123;BME280;37162;41.724;13.346;2023-04-12T00:12:39;96476.75;;;17.04;59.18
51123;BME280;37162;41.724;13.346;2023-04-12T00:15:05;96467.88;;;17.03;59.59
51123;BME280;37162;41.724;13.346;2023-04-12T00:17:31;96455.41;;;16.97;59.36
51123;BME280;37162;41.724;13.346;2023-04-12T00:19:56;96459.81;;;17.03;59.35
51123;BME280;37162;41.724;13.346;2023-04-12T00:22:24;96457.94;;;17.04;59.37
51123;BME280;37162;41.724;13.346;2023-04-12T00:24:50;96445.56;;;17.03;59.18
51123;BME280;37162;41.724;13.346;2023-04-12T00:27:16;96430.19;;;16.98;59.26
51123;BME280;37162;41.724;13.346;2023-04-12T00:29:41;96437.50;;;17.03;59.58
51123;BME280;37162;41.724;13.346;2023-04-12T00:32:06;96421.31;;;16.98;59.89
51123;BME280;37162;41.724;13.346;2023-04-12T00:34:32;96431.13;;;17.04;59.87
51123;BME280;37162;41.724;13.346;2023-04-12T00:36:59;96433.22;;;17.02;60.22
51123;BME280;37162;41.724;13.346;2023-04-12T00:39:25;96416.22;;;16.96;60.24
51123;BME280;37162;41.724;13.346;2023-04-12T00:41:51;96428.66;;;17.02;60.20
51123;BME280;37162;41.724;13.346;2023-04-12T00:44:16;96428.44;;;17.04;59.93
51123;BME280;37162;41.724;13.346;2023-04-12T00:46:43;96427.84;;;17.02;59.68
51123;BME280;37162;41.724;13.346;2023-04-12T00:49:09;96424.09;;;17.03;59.70
51123;BME280;37162;41.724;13.346;2023-04-12T00:51:36;96421.41;;;17.03;60.26
51123;BME280;37162;41.724;13.346;2023-04-12T00:54:02;96421.41;;;17.03;60.63
51123;BME280;37162;41.724;13.346;2023-04-12T00:56:28;96421.41;;;17.03;60.54
51123;BME280;37162;41.724;13.346;2023-04-12T00:58:54;96423.28;;;17.02;61.20
51123;BME280;37162;41.724;13.346;2023-04-12T01:01:21;96416.53;;;17.00;61.26
51123;BME280;37162;41.724;13.346;2023-04-12T01:03:47;96420.03;;;17.00;61.35
51123;BME280;37162;41.724;13.346;2023-04-12T01:06:27;96415.75;;;16.99;61.12
51123;BME280;37162;41.724;13.346;2023-04-12T01:16:46;96406.44;;;16.90;59.89
51123;BME280;37162;41.724;13.346;2023-04-12T01:22:41;96404.91;;;16.94;59.45
51123;BME280;37162;41.724;13.346;2023-04-12T01:28:19;96395.72;;;16.90;59.70
51123;BME280;37162;41.724;13.346;2023-04-12T01:30:49;96396.03;;;16.94;59.83
51123;BME280;37162;41.724;13.346;2023-04-12T01:33:16;96386.94;;;16.95;60.20
51123;BME280;37162;41.724;13.346;2023-04-12T01:35:43;96375.78;;;16.86;60.12
51123;BME280;37162;41.724;13.346;2023-04-12T01:38:08;96390.44;;;16.95;60.16
51123;BME280;37162;41.724;13.346;2023-04-12T01:40:34;96383.19;;;16.96;60.14
51123;BME280;37162;41.724;13.346;2023-04-12T01:43:08;96370.59;;;16.96;60.29
51123;BME280;37162;41.724;13.346;2023-04-12T01:45:35;96367.81;;;16.91;60.07
51123;BME280;37162;41.724;13.346;2023-04-12T01:48:01;96376.22;;;16.95;60.28
51123;BME280;37162;41.724;13.346;2023-04-12T01:50:34;96377.81;;;16.96;59.74
51123;BME280;37162;41.724;13.346;2023-04-12T01:53:17;96374.88;;;16.97;59.92
51123;BME280;37162;41.724;13.346;2023-04-12T01:55:43;96371.66;;;16.95;59.59
51123;BME280;37162;41.724;13.346;2023-04-12T01:58:13;96372.47;;;16.96;59.47
51123;BME280;37162;41.724;13.346;2023-04-12T02:00:42;96366.03;;;16.97;59.64
51123;BME280;37162;41.724;13.346;2023-04-12T02:03:08;96371.41;;;16.97;59.55
51123;BME280;37162;41.724;13.346;2023-04-12T02:05:36;96362.19;;;16.93;59.39
51123;BME280;37162;41.724;13.346;2023-04-12T02:08:02;96365.22;;;16.96;59.38
51123;BME280;37162;41.724;13.346;2023-04-12T02:10:29;96360.66;;;16.97;59.40
51123;BME280;37162;41.724;13.346;2023-04-12T02:13:00;96349.94;;;16.97;59.22
51123;BME280;37162;41.724;13.346;2023-04-12T02:15:29;96348.31;;;16.96;59.47
51123;BME280;37162;41.724;13.346;2023-04-12T02:17:55;96341.88;;;16.97;59.27
51123;BME280;37162;41.724;13.346;2023-04-12T02:20:21;96335.69;;;16.96;59.26
51123;BME280;37162;41.724;13.346;2023-04-12T02:22:48;96333.81;;;16.97;59.51
51123;BME280;37162;41.724;13.346;2023-04-12T02:25:14;96329.28;;;16.97;59.44
51123;BME280;37162;41.724;13.346;2023-04-12T02:27:45;96323.09;;;16.97;59.31
51123;BME280;37162;41.724;13.346;2023-04-12T02:30:11;96331.16;;;16.97;59.51
51123;BME280;37162;41.724;13.346;2023-04-12T02:32:37;96325.44;;;16.93;59.65
51123;BME280;37162;41.724;13.346;2023-04-12T02:35:13;96327.41;;;16.98;59.98
51123;BME280;37162;41.724;13.346;2023-04-12T02:37:43;96302.88;;;16.89;60.16
51123;BME280;37162;41.724;13.346;2023-04-12T02:40:08;96318.31;;;16.99;60.31
51123;BME280;37162;41.724;13.346;2023-04-12T02:42:35;96318.31;;;16.99;59.98
51123;BME280;37162;41.724;13.346;2023-04-12T02:45:01;96315.63;;;16.99;60.03
51123;BME280;37162;41.724;13.346;2023-04-12T02:47:26;96312.09;;;16.98;59.92
51123;BME280;37162;41.724;13.346;2023-04-12T02:49:54;96303.16;;;16.93;59.96
51123;BME280;37162;41.724;13.346;2023-04-12T02:52:19;96298.88;;;16.92;59.84
51123;BME280;37162;41.724;13.346;2023-04-12T02:54:45;96314.78;;;16.98;59.51
51123;BME280;37162;41.724;13.346;2023-04-12T02:57:10;96311.28;;;16.98;59.63
51123;BME280;37162;41.724;13.346;2023-04-12T02:59:37;96295.03;;;16.88;59.58
51123;BME280;37162;41.724;13.346;2023-04-12T03:02:02;96310.25;;;16.99;59.40
51123;BME280;37162;41.724;13.346;2023-04-12T03:04:28;96305.13;;;16.97;59.58
51123;BME280;37162;41.724;13.346;2023-04-12T03:06:57;96296.00;;;16.98;59.41
51123;BME280;37162;41.724;13.346;2023-04-12T03:09:23;96297.06;;;16.97;59.56
51123;BME280;37162;41.724;13.346;2023-04-12T03:11:49;96291.69;;;16.97;59.57
51123;BME280;37162;41.724;13.346;2023-04-12T03:14:15;96298.94;;;16.97;59.50
51123;BME280;37162;41.724;13.346;2023-04-12T03:16:41;96293.56;;;16.97;59.32
51123;BME280;37162;41.724;13.346;2023-04-12T03:19:07;96294.63;;;16.96;59.47
51123;BME280;37162;41.724;13.346;2023-04-12T03:21:33;96290.91;;;16.97;59.37
51123;BME280;37162;41.724;13.346;2023-04-12T03:23:59;96294.63;;;16.96;59.18
51123;BME280;37162;41.724;13.346;2023-04-12T03:26:25;96289.75;;;16.93;59.29
51123;BME280;37162;41.724;13.346;2023-04-12T03:29:03;96281.63;;;16.88;59.33
51123;BME280;37162;41.724;13.346;2023-04-12T03:31:35;96291.16;;;16.95;59.57
51123;BME280;37162;41.724;13.346;2023-04-12T03:34:01;96289.19;;;16.91;59.43
51123;BME280;37162;41.724;13.346;2023-04-12T03:36:26;96296.50;;;16.95;59.66
51123;BME280;37162;41.724;13.346;2023-04-12T03:38:52;96293.84;;;16.95;59.75
51123;BME280;37162;41.724;13.346;2023-04-12T03:41:20;96296.50;;;16.95;59.87
51123;BME280;37162;41.724;13.346;2023-04-12T03:43:45;96293.03;;;16.95;60.02
51123;BME280;37162;41.724;13.346;2023-04-12T03:46:11;96288.69;;;16.94;59.81
51123;BME280;37162;41.724;13.346;2023-04-12T03:48:40;96292.22;;;16.94;59.67
51123;BME280;37162;41.724;13.346;2023-04-12T03:51:06;96290.56;;;16.93;59.46
51123;BME280;37162;41.724;13.346;2023-04-12T03:53:36;96285.44;;;16.92;60.33
51123;BME280;37162;41.724;13.346;2023-04-12T03:56:02;96294.06;;;16.94;60.45
51123;BME280;37162;41.724;13.346;2023-04-12T03:58:27;96286.25;;;16.92;60.29
51123;BME280;37162;41.724;13.346;2023-04-12T04:00:53;96283.25;;;16.89;61.56
51123;BME280;37162;41.724;13.346;2023-04-12T04:03:18;96286.84;;;16.94;62.37
51123;BME280;37162;41.724;13.346;2023-04-12T04:05:44;96288.69;;;16.94;62.45
51123;BME280;37162;41.724;13.346;2023-04-12T04:08:09;96288.13;;;16.92;62.31
51123;BME280;37162;41.724;13.346;2023-04-12T04:10:35;96285.69;;;16.90;62.40
51123;BME280;37162;41.724;13.346;2023-04-12T04:13:01;96284.31;;;16.88;62.12
51123;BME280;37162;41.724;13.346;2023-04-12T04:15:27;96286.78;;;16.89;62.24
51123;BME280;37162;41.724;13.346;2023-04-12T04:17:52;96291.81;;;16.85;62.13
51123;BME280;37162;41.724;13.346;2023-04-12T04:20:19;96303.69;;;16.90;62.04
51123;BME280;37162;41.724;13.346;2023-04-12T04:22:44;96300.41;;;16.88;61.36
51123;BME280;37162;41.724;13.346;2023-04-12T04:25:14;96302.28;;;16.87;60.78
51123;BME280;37162;41.724;13.346;2023-04-12T04:27:40;96308.44;;;16.88;60.83
51123;BME280;37162;41.724;13.346;2023-04-12T04:30:09;96308.44;;;16.88;60.29
51123;BME280;37162;41.724;13.346;2023-04-12T04:32:36;96308.22;;;16.89;59.88
51123;BME280;37162;41.724;13.346;2023-04-12T04:35:01;96317.91;;;16.90;59.93
51123;BME280;37162;41.724;13.346;2023-04-12T04:37:28;96316.84;;;16.91;60.07
51123;BME280;37162;41.724;13.346;2023-04-12T04:39:54;96320.34;;;16.92;60.01
51123;BME280;37162;41.724;13.346;2023-04-12T04:42:20;96322.75;;;16.93;60.22
51123;BME280;37162;41.724;13.346;2023-04-12T04:44:47;96316.28;;;16.89;60.26
51123;BME280;37162;41.724;13.346;2023-04-12T04:47:15;96320.88;;;16.94;60.46
51123;BME280;37162;41.724;13.346;2023-04-12T04:49:42;96302.53;;;16.85;60.50
51123;BME280;37162;41.724;13.346;2023-04-12T04:52:08;96320.06;;;16.93;60.24
51123;BME280;37162;41.724;13.346;2023-04-12T04:54:33;96317.66;;;16.92;59.93
51123;BME280;37162;41.724;13.346;2023-04-12T04:57:00;96309.03;;;16.90;59.77
51123;BME280;37162;41.724;13.346;2023-04-12T04:59:25;96315.78;;;16.92;59.55
51123;BME280;37162;41.724;13.346;2023-04-12T05:01:51;96311.66;;;16.84;59.72
51123;BME280;37162;41.724;13.346;2023-04-12T05:04:16;96317.66;;;16.92;59.84
51123;BME280;37162;41.724;13.346;2023-04-12T05:06:42;96319.53;;;16.91;59.77
51123;BME280;37162;41.724;13.346;2023-04-12T05:09:08;96320.34;;;16.92;59.79
51123;BME280;37162;41.724;13.346;2023-04-12T05:11:34;96316.84;;;16.91;59.53
51123;BME280;37162;41.724;13.346;2023-04-12T05:14:00;96317.66;;;16.92;59.60
51123;BME280;37162;41.724;13.346;2023-04-12T05:16:25;96326.75;;;16.91;59.41
51123;BME280;37162;41.724;13.346;2023-04-12T05:18:50;96326.75;;;16.91;59.29
51123;BME280;37162;41.724;13.346;2023-04-12T05:21:16;96324.06;;;16.91;59.58
51123;BME280;37162;41.724;13.346;2023-04-12T05:23:44;96324.88;;;16.91;59.30
51123;BME280;37162;41.724;13.346;2023-04-12T05:26:10;96337.50;;;16.91;59.34
51123;BME280;37162;41.724;13.346;2023-04-12T05:28:35;96335.63;;;16.91;59.51
51123;BME280;37162;41.724;13.346;2023-04-12T05:31:01;96337.50;;;16.91;59.56
51123;BME280;37162;41.724;13.346;2023-04-12T05:33:26;96344.72;;;16.90;59.38
51123;BME280;37162;41.724;13.346;2023-04-12T05:35:52;96348.47;;;16.89;59.38
51123;BME280;37162;41.724;13.346;2023-04-12T05:38:17;96352.78;;;16.90;59.41
51123;BME280;37162;41.724;13.346;2023-04-12T05:40:43;96358.97;;;16.91;59.60
51123;BME280;37162;41.724;13.346;2023-04-12T05:43:09;96366.19;;;16.90;59.43
51123;BME280;37162;41.724;13.346;2023-04-12T05:45:38;96342.91;;;16.79;59.71
51123;BME280;37162;41.724;13.346;2023-04-12T05:48:04;96375.88;;;16.91;59.62
51123;BME280;37162;41.724;13.346;2023-04-12T05:50:30;96365.13;;;16.91;59.43
51123;BME280;37162;41.724;13.346;2023-04-12T05:52:55;96367.00;;;16.91;59.24
51123;BME280;37162;41.724;13.346;2023-04-12T05:55:20;96356.75;;;16.88;59.39
51123;BME280;37162;41.724;13.346;2023-04-12T05:57:46;96351.16;;;16.89;59.44
51123;BME280;37162;41.724;13.346;2023-04-12T06:00:12;96345.53;;;16.91;59.51
51123;BME280;37162;41.724;13.346;2023-04-12T06:02:44;96357.09;;;16.91;60.00
51123;BME280;37162;41.724;13.346;2023-04-12T06:05:10;96351.72;;;16.91;60.23
51123;BME280;37162;41.724;13.346;2023-04-12T06:07:37;96351.16;;;16.89;59.63
51123;BME280;37162;41.724;13.346;2023-04-12T06:10:04;96351.16;;;16.89;59.38
51123;BME280;37162;41.724;13.346;2023-04-12T06:12:30;96356.53;;;16.89;59.37
51123;BME280;37162;41.724;13.346;2023-04-12T06:14:55;96350.31;;;16.89;59.30
51123;BME280;37162;41.724;13.346;2023-04-12T06:17:21;96352.44;;;16.86;59.41
51123;BME280;37162;41.724;13.346;2023-04-12T06:19:46;96353.84;;;16.89;59.42
51123;BME280;37162;41.724;13.346;2023-04-12T06:22:12;96359.22;;;16.89;59.24
51123;BME280;37162;41.724;13.346;2023-04-12T06:24:37;96362.94;;;16.88;59.24
51123;BME280;37162;41.724;13.346;2023-04-12T06:27:03;96361.91;;;16.89;59.28
51123;BME280;37162;41.724;13.346;2023-04-12T06:29:28;96356.28;;;16.91;59.84
51123;BME280;37162;41.724;13.346;2023-04-12T06:31:53;96362.44;;;16.91;60.33
51123;BME280;37162;41.724;13.346;2023-04-12T06:34:19;96361.91;;;16.89;59.97
51123;BME280;37162;41.724;13.346;2023-04-12T06:36:44;96355.94;;;16.87;59.57
51123;BME280;37162;41.724;13.346;2023-04-12T06:39:12;96354.06;;;16.88;59.18
51123;BME280;37162;41.724;13.346;2023-04-12T06:41:38;96344.16;;;16.88;59.27
51123;BME280;37162;41.724;13.346;2023-04-12T06:44:03;96340.44;;;16.89;59.29
51123;BME280;37162;41.724;13.346;2023-04-12T06:46:29;96333.19;;;16.90;59.19
51123;BME280;37162;41.724;13.346;2023-04-12T06:48:55;96344.47;;;16.92;59.42
51123;BME280;37162;41.724;13.346;2023-04-12T06:51:21;96324.00;;;16.85;59.27
51123;BME280;37162;41.724;13.346;2023-04-12T06:53:46;96342.59;;;16.92;59.30
51123;BME280;37162;41.724;13.346;2023-04-12T06:56:12;96346.09;;;16.93;59.41
51123;BME280;37162;41.724;13.346;2023-04-12T06:58:37;96349.38;;;16.95;59.26
51123;BME280;37162;41.724;13.346;2023-04-12T07:01:07;96347.72;;;16.94;58.78
51123;BME280;37162;41.724;13.346;2023-04-12T07:03:33;96327.97;;;16.83;58.73
51123;BME280;37162;41.724;13.346;2023-04-12T07:05:59;96328.78;;;16.83;58.79
51123;BME280;37162;41.724;13.346;2023-04-12T07:08:27;96353.09;;;16.94;58.73
51123;BME280;37162;41.724;13.346;2023-04-12T07:10:56;96331.06;;;16.92;58.66
51123;BME280;37162;41.724;13.346;2023-04-12T07:13:21;96329.78;;;16.94;58.58
51123;BME280;37162;41.724;13.346;2023-04-12T07:15:48;96336.75;;;16.95;58.71
51123;BME280;37162;41.724;13.346;2023-04-12T07:18:13;96336.44;;;16.92;58.84
51123;BME280;37162;41.724;13.346;2023-04-12T07:20:39;96330.50;;;16.90;58.79
51123;BME280;37162;41.724;13.346;2023-04-12T07:23:04;96322.69;;;16.88;58.79
51123;BME280;37162;41.724;13.346;2023-04-12T07:25:30;96332.22;;;16.96;58.88
51123;BME280;37162;41.724;13.346;2023-04-12T07:27:55;96338.94;;;16.98;59.03
51123;BME280;37162;41.724;13.346;2023-04-12T07:30:21;96331.72;;;16.99;58.82
51123;BME280;37162;41.724;13.346;2023-04-12T07:32:47;96329.84;;;16.99;58.83
51123;BME280;37162;41.724;13.346;2023-04-12T07:35:13;96337.66;;;17.01;58.62
51123;BME280;37162;41.724;13.346;2023-04-12T07:37:38;96332.03;;;17.02;58.85
51123;BME280;37162;41.724;13.346;2023-04-12T07:40:04;96331.81;;;17.04;58.85
51123;BME280;37162;41.724;13.346;2023-04-12T07:42:30;96335.06;;;17.06;58.96
51123;BME280;37162;41.724;13.346;2023-04-12T07:44:55;96331.31;;;17.07;59.45
51123;BME280;37162;41.724;13.346;2023-04-12T07:47:21;96333.78;;;17.08;59.17
51123;BME280;37162;41.724;13.346;2023-04-12T07:49:46;96343.44;;;17.09;59.09
51123;BME280;37162;41.724;13.346;2023-04-12T07:52:12;96337.81;;;17.11;58.48
51123;BME280;37162;41.724;13.346;2023-04-12T07:54:37;96336.75;;;17.12;58.30
51123;BME280;37162;41.724;13.346;2023-04-12T07:57:03;96338.97;;;17.15;57.88
51123;BME280;37162;41.724;13.346;2023-04-12T07:59:29;96335.13;;;17.11;57.84
51123;BME280;37162;41.724;13.346;2023-04-12T08:01:55;96329.84;;;17.16;57.51
51123;BME280;37162;41.724;13.346;2023-04-12T08:04:20;96337.16;;;17.21;57.30
51123;BME280;37162;41.724;13.346;2023-04-12T08:06:46;96323.09;;;17.14;57.53
51123;BME280;37162;41.724;13.346;2023-04-12T08:09:12;96328.28;;;17.20;57.40
51123;BME280;37162;41.724;13.346;2023-04-12T08:11:37;96345.06;;;17.27;57.55
51123;BME280;37162;41.724;13.346;2023-04-12T08:14:03;96342.13;;;17.29;57.01
51123;BME280;37162;41.724;13.346;2023-04-12T08:16:28;96324.56;;;17.21;56.45
51123;BME280;37162;41.724;13.346;2023-04-12T08:18:54;96339.19;;;17.30;56.04
51123;BME280;37162;41.724;13.346;2023-04-12T08:21:19;96338.97;;;17.32;56.70
51123;BME280;37162;41.724;13.346;2023-04-12T08:23:45;96340.66;;;17.38;57.06
51123;BME280;37162;41.724;13.346;2023-04-12T08:26:11;96346.84;;;17.38;56.39
51123;BME280;37162;41.724;13.346;2023-04-12T08:28:36;96339.59;;;17.39;55.64
51123;BME280;37162;41.724;13.346;2023-04-12T08:31:01;96340.41;;;17.40;55.72
51123;BME280;37162;41.724;13.346;2023-04-12T08:33:27;96338.53;;;17.40;55.21
51123;BME280;37162;41.724;13.346;2023-04-12T08:35:52;96333.16;;;17.40;55.40
51123;BME280;37162;41.724;13.346;2023-04-12T08:38:18;96335.63;;;17.42;56.02
51123;BME280;37162;41.724;13.346;2023-04-12T08:40:43;96331.28;;;17.41;56.08
51123;BME280;37162;41.724;13.346;2023-04-12T08:43:11;96331.63;;;17.44;56.27
51123;BME280;37162;41.724;13.346;2023-04-12T08:45:37;96324.13;;;17.46;56.63
51123;BME280;37162;41.724;13.346;2023-04-12T08:48:05;96320.13;;;17.49;56.90
51123;BME280;37162;41.724;13.346;2023-04-12T08:50:31;96310.78;;;17.51;56.73
51123;BME280;37162;41.724;13.346;2023-04-12T08:52:58;96309.66;;;17.47;56.84
51123;BME280;37162;41.724;13.346;2023-04-12T08:55:23;96314.59;;;17.55;57.35
51123;BME280;37162;41.724;13.346;2023-04-12T08:57:54;96319.47;;;17.58;57.23
51123;BME280;37162;41.724;13.346;2023-04-12T09:00:20;96299.78;;;17.53;57.36
51123;BME280;37162;41.724;13.346;2023-04-12T09:02:46;96295.88;;;17.60;57.34
51123;BME280;37162;41.724;13.346;2023-04-12T09:05:13;96294.53;;;17.63;57.56
51123;BME280;37162;41.724;13.346;2023-04-12T09:07:39;96298.03;;;17.63;57.63
51123;BME280;37162;41.724;13.346;2023-04-12T09:10:05;96286.16;;;17.59;57.53
51123;BME280;37162;41.724;13.346;2023-04-12T09:12:31;96295.41;;;17.69;57.68
51123;BME280;37162;41.724;13.346;2023-04-12T09:15:06;96294.38;;;17.70;57.45
51123;BME280;37162;41.724;13.346;2023-04-12T09:17:38;96283.31;;;17.66;57.60
51123;BME280;37162;41.724;13.346;2023-04-12T09:22:41;96269.47;;;17.74;57.50
51123;BME280;37162;41.724;13.346;2023-04-12T09:25:11;96288.84;;;17.76;57.88
51123;BME280;37162;41.724;13.346;2023-04-12T09:30:12;96283.53;;;17.81;57.40
51123;BME280;37162;41.724;13.346;2023-04-12T09:32:38;96291.91;;;17.85;57.44
51123;BME280;37162;41.724;13.346;2023-04-12T09:35:03;96280.09;;;17.86;57.29
51123;BME280;37162;41.724;13.346;2023-04-12T09:37:30;96283.84;;;17.85;56.97
51123;BME280;37162;41.724;13.346;2023-04-12T09:40:06;96287.13;;;17.92;53.34
51123;BME280;37162;41.724;13.346;2023-04-12T09:42:49;96282.13;;;18.01;52.94
51123;BME280;37162;41.724;13.346;2023-04-12T09:45:21;96283.47;;;17.98;52.51
51123;BME280;37162;41.724;13.346;2023-04-12T09:47:47;96278.66;;;18.00;54.07
51123;BME280;37162;41.724;13.346;2023-04-12T09:52:45;96272.50;;;18.05;53.82
51123;BME280;37162;41.724;13.346;2023-04-12T09:55:11;96274.41;;;18.04;53.89
51123;BME280;37162;41.724;13.346;2023-04-12T09:59:56;96279.81;;;18.09;55.41
51123;BME280;37162;41.724;13.346;2023-04-12T10:02:26;96269.66;;;18.11;55.69
51123;BME280;37162;41.724;13.346;2023-04-12T10:04:52;96271.00;;;18.14;56.26
51123;BME280;37162;41.724;13.346;2023-04-12T10:07:18;96275.06;;;18.17;56.21
51123;BME280;37162;41.724;13.346;2023-04-12T10:09:44;96278.31;;;18.19;56.49
51123;BME280;37162;41.724;13.346;2023-04-12T10:12:10;96265.19;;;18.22;56.42
51123;BME280;37162;41.724;13.346;2023-04-12T10:14:36;96270.28;;;18.24;56.38
51123;BME280;37162;41.724;13.346;2023-04-12T10:17:03;96260.13;;;18.26;56.52
51123;BME280;37162;41.724;13.346;2023-04-12T10:19:30;96262.28;;;18.29;56.48
51123;BME280;37162;41.724;13.346;2023-04-12T10:21:58;96260.97;;;18.31;56.35
51123;BME280;37162;41.724;13.346;2023-04-12T10:24:24;96254.53;;;18.32;56.38
51123;BME280;37162;41.724;13.346;2023-04-12T10:26:52;96247.00;;;18.34;56.37
51123;BME280;37162;41.724;13.346;2023-04-12T10:29:32;96249.19;;;18.37;56.27
51123;BME280;37162;41.724;13.346;2023-04-12T10:32:20;96240.88;;;18.39;56.43
51123;BME280;37162;41.724;13.346;2023-04-12T10:34:54;96243.06;;;18.42;56.55
51123;BME280;37162;41.724;13.346;2023-04-12T10:37:21;96245.47;;;18.44;56.69
51123;BME280;37162;41.724;13.346;2023-04-12T10:39:53;96228.50;;;18.38;56.73
51123;BME280;37162;41.724;13.346;2023-04-12T10:42:26;96229.09;;;18.45;56.53
51123;BME280;37162;41.724;13.346;2023-04-12T10:44:54;96221.22;;;18.38;56.73
51123;BME280;37162;41.724;13.346;2023-04-12T10:50:28;96226.69;;;18.49;56.67
51123;BME280;37162;41.724;13.346;2023-04-12T10:55:43;96209.50;;;18.50;56.71
51123;BME280;37162;41.724;13.346;2023-04-12T10:58:10;96209.50;;;18.50;56.92
51123;BME280;37162;41.724;13.346;2023-04-12T11:03:19;96201.97;;;18.52;56.96
51123;BME280;37162;41.724;13.346;2023-04-12T11:05:59;96197.19;;;18.54;57.03
51123;BME280;37162;41.724;13.346;2023-04-12T11:08:29;96199.59;;;18.55;57.08
51123;BME280;37162;41.724;13.346;2023-04-12T11:11:01;96193.16;;;18.56;57.08
51123;BME280;37162;41.724;13.346;2023-04-12T11:13:28;96183.19;;;18.57;57.01
51123;BME280;37162;41.724;13.346;2023-04-12T11:16:02;96194.53;;;18.59;56.89
51123;BME280;37162;41.724;13.346;2023-04-12T11:18:27;96191.56;;;18.60;56.77
51123;BME280;37162;41.724;13.346;2023-04-12T11:20:53;96171.09;;;18.54;57.03
51123;BME280;37162;41.724;13.346;2023-04-12T11:23:19;96172.72;;;18.60;56.71
51123;BME280;37162;41.724;13.346;2023-04-12T11:25:50;96163.31;;;18.63;56.68
51123;BME280;37162;41.724;13.346;2023-04-12T11:28:17;96173.84;;;18.64;56.65
51123;BME280;37162;41.724;13.346;2023-04-12T11:33:33;96163.88;;;18.65;56.64
51123;BME280;37162;41.724;13.346;2023-04-12T11:35:58;96166.56;;;18.65;56.70
51123;BME280;37162;41.724;13.346;2023-04-12T11:38:27;96167.38;;;18.65;56.64
51123;BME280;37162;41.724;13.346;2023-04-12T11:40:53;96164.44;;;18.67;56.84
51123;BME280;37162;41.724;13.346;2023-04-12T11:43:21;96165.25;;;18.68;56.79
51123;BME280;37162;41.724;13.346;2023-04-12T11:45:47;96159.66;;;18.69;56.65
51123;BME280;37162;41.724;13.346;2023-04-12T11:48:12;96162.06;;;18.71;56.55
51123;BME280;37162;41.724;13.346;2023-04-12T11:50:38;96158.56;;;18.70;56.70
51123;BME280;37162;41.724;13.346;2023-04-12T11:53:11;96140.75;;;18.64;56.50
51123;BME280;37162;41.724;13.346;2023-04-12T11:55:37;96136.41;;;18.63;56.48
51123;BME280;37162;41.724;13.346;2023-04-12T11:58:02;96148.34;;;18.72;56.55
51123;BME280;37162;41.724;13.346;2023-04-12T12:00:28;96141.91;;;18.73;56.24
51123;BME280;37162;41.724;13.346;2023-04-12T12:02:55;96142.72;;;18.74;56.53
51123;BME280;37162;41.724;13.346;2023-04-12T12:05:21;96138.97;;;18.75;56.42
51123;BME280;37162;41.724;13.346;2023-04-12T12:07:47;96137.88;;;18.76;56.46
51123;BME280;37162;41.724;13.346;2023-04-12T12:10:12;96145.16;;;18.75;56.52
51123;BME280;37162;41.724;13.346;2023-04-12T12:12:38;96140.56;;;18.76;56.53
51123;BME280;37162;41.724;13.346;2023-04-12T12:15:04;96147.84;;;18.75;55.58
51123;BME280;37162;41.724;13.346;2023-04-12T12:17:35;96135.72;;;18.73;55.57
51123;BME280;37162;41.724;13.346;2023-04-12T12:20:02;96142.47;;;18.80;55.00
51123;BME280;37162;41.724;13.346;2023-04-12T12:22:28;96139.25;;;18.78;54.98
51123;BME280;37162;41.724;13.346;2023-04-12T12:24:56;96141.41;;;18.81;55.58
51123;BME280;37162;41.724;13.346;2023-04-12T12:27:33;96145.19;;;18.80;55.77
51123;BME280;37162;41.724;13.346;2023-04-12T12:30:00;96133.31;;;18.76;56.15
51123;BME280;37162;41.724;13.346;2023-04-12T12:32:31;96139.50;;;18.77;55.96
51123;BME280;37162;41.724;13.346;2023-04-12T12:34:58;96128.16;;;18.70;56.05
51123;BME280;37162;41.724;13.346;2023-04-12T12:37:26;96135.47;;;18.74;56.21
51123;BME280;37162;41.724;13.346;2023-04-12T12:40:28;96123.09;;;18.73;56.22
51123;BME280;37162;41.724;13.346;2023-04-12T12:42:56;96125.22;;;18.71;56.38
51123;BME280;37162;41.724;13.346;2023-04-12T12:45:24;96115.78;;;18.69;56.37
51123;BME280;37162;41.724;13.346;2023-04-12T12:47:56;96113.03;;;18.63;56.52
51123;BME280;37162;41.724;13.346;2023-04-12T12:50:26;96118.47;;;18.69;56.49
51123;BME280;37162;41.724;13.346;2023-04-12T12:52:53;96125.72;;;18.68;56.41
51123;BME280;37162;41.724;13.346;2023-04-12T12:55:19;96122.44;;;18.66;56.55
51123;BME280;37162;41.724;13.346;2023-04-12T12:57:46;96107.34;;;18.60;56.44
51123;BME280;37162;41.724;13.346;2023-04-12T13:00:12;96115.97;;;18.62;56.56
51123;BME280;37162;41.724;13.346;2023-04-12T13:02:40;96106.56;;;18.59;56.71
51123;BME280;37162;41.724;13.346;2023-04-12T13:05:06;96094.41;;;18.57;56.63
51123;BME280;37162;41.724;13.346;2023-04-12T13:07:31;96082.22;;;18.44;56.68
51123;BME280;37162;41.724;13.346;2023-04-12T13:09:57;96109.19;;;18.49;56.70
51123;BME280;37162;41.724;13.346;2023-04-12T13:12:23;96096.22;;;18.46;56.90
51123;BME280;37162;41.724;13.346;2023-04-12T13:14:48;96106.19;;;18.46;56.71
51123;BME280;37162;41.724;13.346;2023-04-12T13:17:14;96083.53;;;18.36;56.83
51123;BME280;37162;41.724;13.346;2023-04-12T13:19:40;96105.88;;;18.42;57.03
51123;BME280;37162;41.724;13.346;2023-04-12T13:22:06;96104.50;;;18.39;57.13
51123;BME280;37162;41.724;13.346;2023-04-12T13:24:33;96097.50;;;18.38;57.28